Historyczne dane pomiarowe

Dodano dane terminowe – wersja testowa.

Dane z okresu 1951-2019

Wersja bazy: 1.34 [2019-03-16, lista zmian], aktualizacja planowana na 2019-04-15

Dane meteo z obszaru Polski uzyskane na podstawie danych udostępnionych przez Instytut Meteorologii i Gospodarki Wodnej – Państwowy Instytut Badawczy.

 

Wybierz Datę:    

       

TemperaturaWilgotnośćWiatrCiśnienieOpadyŚniegCzas trwania zjawisk
 Stacja t tx tn tng RH VA  wxwx mslp ppp RRR   cm mm wxwxwxwxwxwxwx
1956-11-09 -5.2 -2.6-10.4-14.7 76.0- 5.3 1.3---- 0.0------------
1956-11-08 -5.7 -1.4 -8.1 -9.8 75.8- 1.0 2.7---- 0.0------------
1956-11-07 -1.2 2.4 -3.7 -4.6 67.8- 4.3 5.0---- 0.0------------
1956-11-06 0.2 4.2 -0.9 -3.9 85.5- 2.0 4.7---- 0.0-- 1---------
1956-11-05 1.2 4.3 -8.1-12.7 93.8- 5.3 4.0---- 1.0-- 1---------
1956-11-04 -4.4 2.6 -8.6-12.6 86.5- 0.7 0.3---- 0.0-- 1---------
1956-11-03 -2.1 -0.9 -9.0-12.6 96.0- 7.7 1.0---- 0.0-- 1---------
1956-11-02 -3.3 2.1 -7.3 -3.1 93.3- 4.0 1.0---- 0.0-- 3---------
1956-11-01 -0.9 2.2 -7.5-12.4 58.0- 5.3 5.0---- 2.0------------
1956-10-31 -5.6 -1.3 -7.3 -5.4 79.3- 2.7 3.0---- 0.0------------
1956-10-30 0.4 5.2 -1.6 2.4 95.5- 8.0 3.3---- 0.1------------
1956-10-29 6.4 11.1 4.3 0.0 83.5- 4.7 2.0---- 0.6------------
1956-10-28 11.0 12.0 8.9 8.5 94.8- 8.0 3.0---- 6.1------------
1956-10-27 9.0 10.9 3.3 -1.9 89.8- 5.7 1.7---- 2.7------------
1956-10-26 7.7 14.7 2.6 -2.2 92.8- 0.7 1.0---- 0.0------------
1956-10-25 9.2 15.6 5.6 -0.9 90.5- 0.0 1.7---- 0.0------------
1956-10-24 10.5 14.8 1.4 -4.0 84.0- 4.3 3.0---- 0.0------------
1956-10-23 9.8 11.4 5.8 -1.0 87.3- 8.0 2.7---- 0.0------------
1956-10-22 8.9 12.5 5.8 6.2 93.0- 5.3 2.3---- 0.0------------
1956-10-21 12.0 15.1 7.2 2.3 90.8- 5.3 1.7---- 0.0------------
1956-10-20 9.0 12.3 6.9 2.2 92.0- 7.7 1.7---- 0.0------------
1956-10-19 11.2 12.5 8.4 7.3 93.8- 7.7 3.0---- 2.3------------
1956-10-18 8.7 12.5 -1.4 -6.5 81.5- 7.3 2.3---- 0.2------------
1956-10-17 3.9 10.8 -4.2 -7.7 84.0- 1.7 1.0---- 0.0------------
1956-10-16 3.6 9.3 -0.1 -5.9 90.3- 4.7 1.0---- 0.0------------
1956-10-15 4.8 11.3 1.3 -1.6 88.5- 1.3 3.3---- 0.0------------
1956-10-14 7.7 10.7 5.4 7.5 76.5- 4.0 6.0---- 0.4------------
1956-10-13 9.9 11.4 7.5 5.5 78.5- 8.0 8.0---- 8.8------------
1956-10-12 8.9 10.5 7.4 6.4 87.0- 8.0 3.7---- 0.0------------
1956-10-11 7.0 10.1 -0.4 -5.9 80.0- 7.3 3.7---- 0.0------------
1956-10-10 2.2 8.1 -0.4 -2.0 85.8- 2.0 2.7---- 0.0------------
1956-10-09 6.5 10.6 -0.5 -5.6 82.8- 3.7 2.0---- 0.0------------
1956-10-08 4.7 10.0 2.2 -0.7 85.3- 3.3 3.0---- 0.0------------
1956-10-07 5.9 8.5 1.9 1.2 86.3- 6.3 10.0---- 4.3------------
1956-10-06 9.6 12.7 8.1 8.0 94.0- 8.0 3.0---- 28.7------------
1956-10-05 11.1 14.9 9.1 8.2 89.3- 4.7 2.3---- 3.6------------
1956-10-04 9.1 11.9 4.4 -0.3 95.8- 7.7 1.3---- 6.6------------
1956-10-03 15.6 23.9 11.4 5.6 75.5- 4.7 4.0---- 0.0------------
1956-10-02 16.9 25.1 7.7 2.9 77.0- 2.0 2.3---- 0.0------------
1956-10-01 13.3 22.5 2.2 -1.8 86.5- 2.7 0.7---- 0.0------------
1956-09-30 11.7 19.8 7.0 9.7 85.5- 2.0 2.0---- 0.0------------
1956-09-29 16.9 20.7 11.0 6.3 79.0- 7.0 3.3---- 0.0------------
1956-09-28 14.0 20.2 11.0 5.6 88.5- 2.7 2.7---- 0.8------------
1956-09-27 12.8 22.4 3.1 -2.4 74.3- 3.3 1.7---- 0.0------------
1956-09-26 10.8 22.0 0.9 -3.5 71.8- 0.0 2.0---- 0.0------------
1956-09-25 9.3 19.0 1.4 -2.8 78.8- 1.3 2.0---- 0.0------------
1956-09-24 7.7 14.4 0.8 -2.6 64.3- 0.0 3.3---- 0.0------------
1956-09-23 9.7 15.0 5.8 -1.0 78.5- 6.0 4.0---- 0.0------------
1956-09-22 11.5 19.5 0.8 -3.3 77.5- 1.7 1.7---- 0.0------------
1956-09-21 8.6 18.4 1.3 -2.7 84.5- 0.3 0.7---- 0.0------------
1956-09-20 6.9 16.4 -0.8 -4.4 85.3- 3.0 1.0---- 0.0------------
1956-09-19 5.9 15.5 -1.4 -5.3 86.0- 1.3 0.3---- 0.0------------
1956-09-18 6.2 10.5 3.5 -0.5 88.5- 5.3 2.3---- 0.0------------
1956-09-17 8.5 13.4 6.4 6.4 83.5- 6.7 3.7---- 2.3------------
1956-09-16 10.1 12.9 7.9 2.5 83.8- 6.3 3.3---- 0.0------------
1956-09-15 10.3 15.7 2.8 -1.6 87.8- 3.3 3.0---- 0.0------------
1956-09-14 9.6 14.5 7.0 2.4 78.3- 3.3 3.3---- 0.0------------
1956-09-13 9.2 13.0 6.4 3.6 86.8- 5.3 3.7---- 2.8------------
1956-09-12 11.0 14.0 8.4 5.0 94.3- 5.3 2.3---- 10.4------------
1956-09-11 12.7 13.6 11.0 6.2 96.8- 7.7 2.0---- 12.3------------
227.5 ms

 

Źródłem pochodzenia danych jest Instytut Meteorologii i Gospodarki Wodnej – Państwowy Instytut Badawczy. Dane Instytutu Meteorologii i Gospodarki Wodnej – Państwowego Instytutu Badawczego zostały przetworzone.

Dane źródłowe można odnaleźć na stronie https://dane.imgw.pl